createdAt,value
2023-02-22T00:01:34.046Z,52.78
2023-02-22T00:04:02.096Z,51.03
2023-02-22T00:06:29.438Z,50.38
2023-02-22T00:08:55.823Z,53.95
2023-02-22T00:11:22.206Z,55.60
2023-02-22T00:13:50.488Z,58.53
2023-02-22T00:16:23.956Z,54.53
2023-02-22T00:18:50.868Z,54.42
2023-02-22T00:21:18.324Z,53.53
2023-02-22T00:23:46.904Z,52.95
2023-02-22T00:26:18.272Z,51.80
2023-02-22T00:28:49.968Z,53.90
2023-02-22T00:31:16.975Z,53.83
2023-02-22T00:33:44.034Z,56.15
2023-02-22T00:36:12.822Z,55.60
2023-02-22T00:38:41.783Z,56.42
2023-02-22T00:41:08.833Z,53.33
2023-02-22T00:43:35.381Z,54.88
2023-02-22T00:46:01.858Z,65.13
2023-02-22T00:48:28.540Z,55.67
2023-02-22T00:50:55.239Z,53.45
2023-02-22T00:53:23.435Z,54.70
2023-02-22T00:55:50.409Z,52.65
2023-02-22T00:58:16.836Z,50.30
2023-02-22T01:00:43.469Z,53.30
2023-02-22T01:03:13.128Z,50.83
2023-02-22T01:05:39.640Z,53.35
2023-02-22T01:08:08.774Z,52.03
2023-02-22T01:10:36.097Z,52.28
2023-02-22T01:13:08.430Z,51.50
2023-02-22T01:15:36.696Z,64.20
2023-02-22T01:18:05.096Z,49.70
2023-02-22T01:20:32.782Z,51.35
2023-02-22T01:23:03.464Z,52.45
2023-02-22T01:25:31.786Z,50.45
2023-02-22T01:28:00.817Z,51.17
2023-02-22T01:30:30.363Z,53.25
2023-02-22T01:32:57.973Z,49.70
2023-02-22T01:35:28.076Z,51.83
2023-02-22T01:37:55.365Z,49.92
2023-02-22T01:40:34.901Z,53.42
2023-02-22T01:43:05.030Z,52.55
2023-02-22T01:45:32.848Z,52.28
2023-02-22T01:48:18.079Z,51.33
2023-02-22T01:50:52.628Z,56.30
2023-02-22T01:53:21.606Z,50.70
2023-02-22T01:55:49.087Z,51.97
2023-02-22T01:58:18.961Z,51.30
2023-02-22T02:00:45.611Z,51.08
2023-02-22T02:03:19.191Z,53.33
2023-02-22T02:12:35.809Z,48.20
2023-02-22T02:15:32.685Z,49.70
2023-02-22T02:18:02.075Z,46.90
2023-02-22T02:20:50.402Z,48.28
2023-02-22T02:23:44.808Z,46.47
2023-02-22T02:26:49.106Z,46.22
2023-02-22T02:29:53.195Z,45.28
2023-02-22T02:32:25.520Z,50.35
2023-02-22T02:35:00.471Z,46.38
2023-02-22T02:37:36.951Z,47.40
2023-02-22T02:40:11.735Z,47.50
2023-02-22T02:42:44.419Z,45.55
2023-02-22T02:45:21.832Z,43.40
2023-02-22T02:47:58.537Z,45.72
2023-02-22T02:58:08.193Z,42.50
2023-02-22T03:00:39.610Z,44.53
2023-02-22T03:03:37.219Z,43.97
2023-02-22T03:06:21.520Z,42.83
2023-02-22T03:09:12.801Z,43.97
2023-02-22T03:12:19.170Z,44.60
2023-02-22T03:18:45.113Z,41.97
2023-02-22T03:21:17.570Z,45.80
2023-02-22T03:23:51.128Z,44.70
2023-02-22T03:26:24.362Z,45.17
2023-02-22T03:28:55.841Z,39.30
2023-02-22T03:31:29.829Z,38.17
2023-02-22T03:34:22.387Z,37.58
2023-02-22T03:37:14.549Z,37.45
2023-02-22T03:39:43.346Z,37.05
2023-02-22T03:42:16.322Z,37.45
2023-02-22T03:44:45.814Z,39.85
2023-02-22T03:47:18.318Z,38.97
2023-02-22T03:49:59.788Z,37.47
2023-02-22T03:52:26.289Z,37.95
2023-02-22T03:54:55.996Z,37.97
2023-02-22T03:57:29.358Z,37.35
2023-02-22T03:59:55.981Z,35.25
2023-02-22T04:02:23.695Z,36.42
2023-02-22T04:04:50.093Z,38.08
2023-02-22T04:07:17.449Z,35.00
2023-02-22T04:12:40.674Z,36.17
2023-02-22T04:15:08.561Z,32.10
2023-02-22T04:17:35.079Z,32.47
2023-02-22T04:20:02.317Z,32.50
2023-02-22T04:22:28.727Z,34.20
2023-02-22T04:24:55.102Z,34.08
2023-02-22T04:27:21.524Z,32.25
2023-02-22T04:29:48.041Z,33.22
2023-02-22T04:32:16.882Z,32.28
2023-02-22T04:34:43.317Z,29.25
2023-02-22T04:37:10.395Z,30.70
2023-02-22T04:39:36.840Z,30.45
2023-02-22T04:42:03.502Z,30.23
2023-02-22T04:44:29.962Z,30.13
2023-02-22T04:46:57.423Z,29.35
2023-02-22T04:49:24.629Z,30.95
2023-02-22T04:51:55.607Z,30.08
2023-02-22T04:54:22.117Z,28.20
2023-02-22T04:56:48.563Z,28.02
2023-02-22T04:59:15.404Z,29.42
2023-02-22T05:01:42.970Z,25.95
2023-02-22T05:04:09.394Z,26.55
2023-02-22T05:06:38.855Z,26.45
2023-02-22T05:09:08.318Z,27.15
2023-02-22T05:11:38.121Z,27.25
2023-02-22T05:14:04.562Z,27.80
2023-02-22T05:16:31.127Z,26.92
2023-02-22T05:18:57.605Z,26.85
2023-02-22T05:21:24.092Z,26.13
2023-02-22T05:23:50.514Z,24.75
2023-02-22T05:26:16.901Z,26.10
2023-02-22T05:28:43.392Z,25.38
2023-02-22T05:31:09.903Z,24.90
2023-02-22T05:33:36.595Z,24.95
2023-02-22T05:36:03.100Z,25.27
2023-02-22T05:38:29.783Z,25.48
2023-02-22T05:40:56.938Z,25.58
2023-02-22T05:43:23.373Z,23.73
2023-02-22T05:45:49.815Z,23.17
2023-02-22T05:48:16.296Z,22.92
2023-02-22T05:50:43.910Z,23.65
2023-02-22T05:53:10.374Z,23.20
2023-02-22T05:55:36.815Z,22.98
2023-02-22T05:58:05.794Z,23.33
2023-02-22T06:00:32.793Z,21.67
2023-02-22T06:03:10.444Z,22.65
2023-02-22T06:05:37.476Z,21.52
2023-02-22T06:08:06.094Z,22.48
2023-02-22T06:10:33.268Z,22.83
2023-02-22T06:13:01.601Z,22.77
2023-02-22T06:15:28.983Z,22.60
2023-02-22T06:17:56.552Z,23.48
2023-02-22T06:20:24.911Z,23.00
2023-02-22T06:22:52.976Z,26.77
2023-02-22T06:25:22.289Z,21.85
2023-02-22T06:27:48.689Z,24.60
2023-02-22T06:30:17.577Z,23.17
2023-02-22T06:32:44.118Z,23.20
2023-02-22T06:35:10.577Z,25.65
2023-02-22T06:37:38.559Z,26.38
2023-02-22T06:40:05.946Z,27.17
2023-02-22T06:42:32.631Z,28.15
2023-02-22T06:44:58.987Z,26.35
2023-02-22T06:47:25.326Z,28.60
2023-02-22T06:49:56.610Z,28.25
2023-02-22T06:52:23.605Z,28.60
2023-02-22T06:54:50.702Z,28.00
2023-02-22T06:57:17.931Z,30.08
2023-02-22T06:59:44.770Z,29.80
2023-02-22T07:02:12.204Z,27.08
2023-02-22T07:04:39.649Z,29.15
2023-02-22T07:07:07.503Z,27.63
2023-02-22T07:09:34.053Z,27.58
2023-02-22T07:12:00.391Z,27.95
2023-02-22T07:14:27.226Z,29.42
2023-02-22T07:16:53.554Z,33.88
2023-02-22T07:19:20.703Z,28.83
2023-02-22T07:21:47.955Z,28.90
2023-02-22T07:24:14.328Z,34.95
2023-02-22T07:26:42.401Z,30.90
2023-02-22T07:29:08.772Z,29.83
2023-02-22T07:31:36.500Z,26.83
2023-02-22T07:34:02.984Z,27.50
2023-02-22T07:36:29.450Z,26.60
2023-02-22T07:38:55.977Z,25.48
2023-02-22T07:41:23.017Z,25.77
2023-02-22T07:43:49.454Z,27.35
2023-02-22T07:46:15.778Z,25.73
2023-02-22T07:48:42.181Z,25.05
2023-02-22T07:51:09.813Z,24.75
2023-02-22T07:53:36.532Z,24.75
2023-02-22T07:56:05.683Z,24.42
2023-02-22T07:58:33.161Z,25.98
2023-02-22T08:01:01.951Z,25.95
2023-02-22T08:03:36.316Z,25.27
2023-02-22T08:06:04.264Z,24.90
2023-02-22T08:08:30.733Z,24.70
2023-02-22T08:10:57.190Z,24.52
2023-02-22T08:13:24.449Z,24.75
2023-02-22T08:15:53.523Z,25.58
2023-02-22T08:18:21.202Z,24.25
2023-02-22T08:20:49.249Z,24.83
2023-02-22T08:23:16.723Z,26.02
2023-02-22T08:25:43.072Z,26.02
2023-02-22T08:28:12.041Z,25.05
2023-02-22T08:30:40.562Z,25.17
2023-02-22T08:33:07.413Z,25.88
2023-02-22T08:35:34.197Z,25.80
2023-02-22T08:38:03.312Z,25.80
2023-02-22T08:40:32.367Z,26.48
2023-02-22T08:42:59.260Z,25.70
2023-02-22T08:45:25.647Z,25.77
2023-02-22T08:47:51.998Z,26.17
2023-02-22T08:50:27.737Z,24.55
2023-02-22T08:52:56.363Z,26.48
2023-02-22T08:55:24.340Z,24.35
2023-02-22T08:57:50.762Z,25.38
2023-02-22T09:00:19.525Z,24.65
2023-02-22T09:02:46.028Z,25.27
2023-02-22T09:05:12.480Z,24.67
2023-02-22T09:07:42.353Z,25.10
2023-02-22T09:10:15.345Z,24.20
2023-02-22T09:12:42.227Z,23.05
2023-02-22T09:15:09.735Z,22.80
2023-02-22T09:17:38.961Z,22.58
2023-02-22T09:20:07.095Z,21.50
2023-02-22T09:22:33.530Z,21.13
2023-02-22T09:25:02.585Z,21.55
2023-02-22T09:27:34.289Z,21.10
2023-02-22T09:30:00.717Z,20.13
2023-02-22T09:32:28.055Z,20.67
2023-02-22T09:34:55.601Z,20.38
2023-02-22T09:37:22.519Z,21.05
2023-02-22T09:39:49.105Z,21.27
2023-02-22T09:42:29.223Z,21.13
2023-02-22T09:45:12.746Z,21.30
2023-02-22T09:47:46.536Z,21.13
2023-02-22T09:50:25.004Z,21.50
2023-02-22T09:53:00.108Z,21.40
2023-02-22T09:55:41.124Z,22.10
2023-02-22T09:58:26.396Z,21.50
2023-02-22T10:01:00.972Z,21.70
2023-02-22T10:03:50.727Z,21.85
2023-02-22T10:06:23.250Z,20.98
2023-02-22T10:08:56.306Z,21.05
2023-02-22T10:11:45.319Z,20.25
2023-02-22T10:14:47.368Z,18.00
2023-02-22T10:17:22.844Z,17.17
2023-02-22T10:20:07.353Z,18.90
2023-02-22T10:22:59.143Z,19.33
2023-02-22T10:25:28.473Z,18.83
2023-02-22T10:28:06.423Z,18.20
2023-02-22T10:30:38.199Z,15.57
2023-02-22T10:33:17.084Z,17.75
2023-02-22T10:35:46.987Z,17.60
2023-02-22T10:38:24.265Z,18.77
2023-02-22T10:40:56.113Z,20.10
2023-02-22T10:43:23.492Z,18.27
2023-02-22T10:45:55.707Z,17.95
2023-02-22T10:48:26.225Z,16.25
2023-02-22T10:50:57.225Z,12.77
2023-02-22T10:53:23.584Z,12.02
2023-02-22T10:56:12.649Z,11.90
2023-02-22T10:59:00.491Z,12.93
2023-02-22T11:01:32.971Z,13.38
2023-02-22T11:04:18.437Z,11.75
2023-02-22T11:06:48.484Z,12.30
2023-02-22T11:09:17.904Z,13.68
2023-02-22T11:11:46.719Z,12.77
2023-02-22T11:14:26.443Z,12.52
2023-02-22T11:16:56.745Z,11.80
2023-02-22T11:19:28.000Z,11.40
2023-02-22T11:22:25.059Z,11.18
2023-02-22T11:24:56.043Z,11.07
2023-02-22T11:27:28.550Z,11.52
2023-02-22T11:30:21.184Z,11.20
2023-02-22T11:32:53.354Z,11.27
2023-02-22T11:35:35.633Z,11.43
2023-02-22T11:38:29.776Z,11.77
2023-02-22T11:41:22.915Z,12.23
2023-02-22T11:43:51.935Z,11.50
2023-02-22T11:46:22.279Z,11.82
2023-02-22T11:49:10.949Z,11.70
2023-02-22T11:52:03.180Z,12.38
2023-02-22T11:54:57.817Z,11.35
2023-02-22T11:58:00.269Z,12.82
2023-02-22T12:00:53.873Z,12.98
2023-02-22T12:03:51.606Z,12.50
2023-02-22T12:06:51.614Z,12.50
2023-02-22T12:09:40.683Z,12.77
2023-02-22T12:12:17.369Z,12.00
2023-02-22T12:15:15.603Z,12.23
2023-02-22T12:18:00.803Z,11.80
2023-02-22T12:20:37.556Z,11.98
2023-02-22T12:23:14.230Z,11.27
2023-02-22T12:25:51.905Z,12.70
2023-02-22T12:28:25.112Z,12.15
2023-02-22T12:31:03.517Z,11.43
2023-02-22T12:33:41.439Z,10.73
2023-02-22T12:36:14.842Z,10.93
2023-02-22T12:38:46.761Z,10.93
2023-02-22T12:41:22.457Z,10.00
2023-02-22T12:44:12.667Z,9.98
2023-02-22T12:46:46.566Z,9.40
2023-02-22T12:49:36.472Z,10.52
2023-02-22T12:52:41.477Z,11.23
2023-02-22T12:55:23.126Z,10.40
2023-02-22T12:58:14.813Z,10.48
2023-02-22T13:00:50.806Z,11.57
2023-02-22T13:03:35.616Z,10.75
2023-02-22T13:06:08.209Z,10.77
2023-02-22T13:08:45.744Z,11.07
2023-02-22T13:11:27.933Z,11.80
2023-02-22T13:14:24.026Z,11.90
2023-02-22T13:17:10.415Z,10.02
2023-02-22T13:19:46.187Z,10.55
2023-02-22T13:22:32.801Z,11.38
2023-02-22T13:25:40.538Z,12.35
2023-02-22T13:28:35.783Z,11.80
2023-02-22T13:31:30.040Z,12.02
2023-02-22T13:34:40.198Z,13.48
2023-02-22T13:48:35.322Z,14.20
2023-02-22T13:56:06.167Z,16.30
2023-02-22T14:13:55.715Z,13.68
2023-02-22T14:16:27.621Z,14.50
2023-02-22T14:19:02.315Z,15.05
2023-02-22T14:21:28.965Z,14.35
2023-02-22T14:24:05.628Z,14.75
2023-02-22T14:26:40.463Z,14.20
2023-02-22T14:29:31.519Z,14.50
2023-02-22T14:32:15.531Z,14.68
2023-02-22T14:34:48.983Z,13.73
2023-02-22T14:37:24.823Z,13.70
2023-02-22T14:39:58.409Z,14.63
2023-02-22T14:42:27.943Z,14.73
2023-02-22T14:45:00.406Z,14.43
2023-02-22T14:47:45.891Z,14.05
2023-02-22T14:50:44.840Z,13.90
2023-02-22T14:53:23.276Z,13.27
2023-02-22T14:55:58.733Z,14.07
2023-02-22T14:58:57.799Z,16.10
2023-02-22T15:01:44.292Z,15.20
2023-02-22T15:04:21.855Z,15.05
2023-02-22T15:06:49.596Z,14.45
2023-02-22T15:09:28.950Z,14.85
2023-02-22T15:12:05.198Z,13.80
2023-02-22T15:14:38.192Z,14.63
2023-02-22T15:17:12.419Z,13.48
2023-02-22T15:19:41.235Z,14.60
2023-02-22T15:22:25.628Z,13.57
2023-02-22T15:28:46.755Z,13.95
2023-02-22T15:31:21.236Z,13.73
2023-02-22T15:33:53.373Z,14.77
2023-02-22T15:36:21.354Z,14.30
2023-02-22T15:38:53.349Z,15.10
2023-02-22T15:41:32.416Z,14.07
2023-02-22T15:44:47.047Z,14.48
2023-02-22T15:47:23.397Z,15.80
2023-02-22T15:53:32.426Z,15.68
2023-02-22T15:56:04.012Z,15.52
2023-02-22T15:58:37.961Z,15.68
2023-02-22T16:01:19.107Z,16.60
2023-02-22T16:03:59.008Z,16.75
2023-02-22T16:06:44.149Z,15.93
2023-02-22T16:09:24.879Z,15.90
2023-02-22T16:12:09.305Z,16.42
2023-02-22T16:14:35.725Z,17.25
2023-02-22T16:17:35.259Z,16.20
2023-02-22T16:20:24.806Z,15.10
2023-02-22T16:22:51.496Z,16.33
2023-02-22T16:25:17.874Z,17.85
2023-02-22T16:28:54.343Z,18.50
2023-02-22T16:31:25.105Z,16.90
2023-02-22T16:33:55.131Z,16.02
2023-02-22T16:36:37.204Z,15.45
2023-02-22T16:39:12.744Z,17.33
2023-02-22T16:41:39.343Z,17.27
2023-02-22T16:44:07.943Z,17.05
2023-02-22T16:46:35.112Z,18.08
2023-02-22T16:49:05.086Z,17.60
2023-02-22T16:51:55.285Z,18.60
2023-02-22T16:54:36.797Z,18.48
2023-02-22T16:57:34.737Z,19.33
2023-02-22T17:01:11.041Z,19.63
2023-02-22T17:06:37.241Z,18.98
2023-02-22T17:09:08.981Z,20.98
2023-02-22T17:12:23.556Z,20.92
2023-02-22T17:14:56.565Z,20.50
2023-02-22T17:17:23.315Z,22.17
2023-02-22T17:19:57.553Z,21.90
2023-02-22T17:22:24.188Z,23.38
2023-02-22T17:24:50.724Z,24.67
2023-02-22T17:31:00.805Z,24.25
2023-02-22T17:33:33.384Z,26.25
2023-02-22T17:38:56.749Z,26.73
2023-02-22T17:41:23.364Z,27.15
2023-02-22T17:43:50.664Z,28.17
2023-02-22T17:46:19.758Z,30.10
2023-02-22T17:48:48.269Z,29.70
2023-02-22T17:51:14.676Z,31.13
2023-02-22T17:53:41.114Z,37.47
2023-02-22T17:56:10.285Z,37.08
2023-02-22T17:58:37.224Z,37.85
2023-02-22T18:01:04.208Z,37.38
2023-02-22T18:03:33.655Z,38.13
2023-02-22T18:06:01.514Z,36.78
2023-02-22T18:08:30.997Z,36.95
2023-02-22T18:10:57.522Z,38.35
2023-02-22T18:13:26.987Z,38.72
2023-02-22T18:15:59.852Z,41.15
2023-02-22T18:18:26.760Z,38.75
2023-02-22T18:20:59.357Z,40.10
2023-02-22T18:23:27.862Z,42.08
2023-02-22T18:26:09.775Z,42.15
2023-02-22T18:28:38.055Z,41.47
2023-02-22T18:31:15.722Z,42.10
2023-02-22T18:33:44.203Z,40.72
2023-02-22T18:36:14.414Z,38.97
2023-02-22T18:38:46.117Z,38.75
2023-02-22T18:41:15.293Z,39.17
2023-02-22T18:43:42.636Z,40.20
2023-02-22T18:46:18.820Z,38.90
2023-02-22T18:48:47.174Z,38.78
2023-02-22T18:51:18.239Z,38.38
2023-02-22T18:53:47.544Z,38.75
2023-02-22T18:56:17.854Z,36.55
2023-02-22T18:58:44.546Z,38.97
2023-02-22T19:01:18.583Z,37.88
2023-02-22T19:03:47.103Z,37.35
2023-02-22T19:06:16.776Z,36.88
2023-02-22T19:08:44.897Z,39.00
2023-02-22T19:11:17.794Z,37.75
2023-02-22T19:13:48.801Z,36.33
2023-02-22T19:16:19.822Z,34.78
2023-02-22T19:18:48.551Z,36.90
2023-02-22T19:21:15.998Z,39.15
2023-02-22T19:23:45.621Z,43.10
2023-02-22T19:26:13.960Z,43.85
2023-02-22T19:28:40.354Z,47.67
2023-02-22T19:31:18.577Z,48.92
2023-02-22T19:33:47.646Z,52.63
2023-02-22T19:36:17.006Z,54.75
2023-02-22T19:38:43.949Z,55.45
2023-02-22T19:41:26.727Z,55.30
2023-02-22T19:43:53.800Z,52.97
2023-02-22T19:46:21.310Z,55.47
2023-02-22T19:48:48.930Z,54.47
2023-02-22T19:51:17.921Z,52.83
2023-02-22T19:53:45.092Z,52.95
2023-02-22T19:56:16.171Z,52.83
2023-02-22T19:58:44.578Z,56.40
2023-02-22T20:01:16.393Z,53.45
2023-02-22T20:03:43.814Z,52.75
2023-02-22T20:06:11.479Z,53.63
2023-02-22T20:08:42.175Z,52.22
2023-02-22T20:11:10.465Z,53.78
2023-02-22T20:16:18.727Z,53.63
2023-02-22T20:18:46.562Z,54.20
2023-02-22T20:21:21.717Z,53.67
2023-02-22T20:23:48.354Z,53.50
2023-02-22T20:26:22.266Z,51.22
2023-02-22T20:28:49.524Z,51.38
2023-02-22T20:31:16.992Z,51.88
2023-02-22T20:33:45.668Z,53.22
2023-02-22T20:36:19.443Z,52.58
2023-02-22T20:38:48.878Z,50.72
2023-02-22T20:41:21.632Z,51.25
2023-02-22T20:43:52.565Z,53.47
2023-02-22T20:46:19.288Z,51.63
2023-02-22T20:48:45.965Z,54.15
2023-02-22T20:51:15.955Z,51.13
2023-02-22T20:53:44.819Z,51.97
2023-02-22T20:56:16.696Z,51.83
2023-02-22T20:58:43.702Z,52.50
2023-02-22T21:01:12.591Z,53.35
2023-02-22T21:03:39.599Z,54.72
2023-02-22T21:06:06.669Z,52.22
2023-02-22T21:08:33.223Z,52.28
2023-02-22T21:11:01.946Z,52.67
2023-02-22T21:13:28.402Z,53.20
2023-02-22T21:15:54.778Z,51.15
2023-02-22T21:18:23.346Z,52.45
2023-02-22T21:20:51.056Z,53.22
2023-02-22T21:23:19.943Z,53.00
2023-02-22T21:25:51.536Z,53.35
2023-02-22T21:28:17.984Z,52.45
2023-02-22T21:30:45.666Z,52.60
2023-02-22T21:33:13.055Z,53.88
2023-02-22T21:35:42.202Z,52.15
2023-02-22T21:38:14.507Z,53.70
2023-02-22T21:40:42.669Z,52.53
2023-02-22T21:43:19.195Z,53.65
2023-02-22T21:45:58.490Z,54.60
2023-02-22T21:48:26.639Z,54.63
2023-02-22T21:50:54.072Z,54.53
2023-02-22T21:53:20.590Z,52.97
2023-02-22T21:55:47.062Z,53.35
2023-02-22T21:58:13.451Z,54.25
2023-02-22T22:00:42.740Z,54.25
2023-02-22T22:03:20.394Z,53.22
2023-02-22T22:05:49.425Z,54.08
2023-02-22T22:08:22.218Z,51.95
2023-02-22T22:10:55.408Z,53.80
2023-02-22T22:13:25.276Z,53.85
2023-02-22T22:15:51.941Z,54.28
2023-02-22T22:18:21.808Z,55.05
2023-02-22T22:20:52.906Z,53.55
2023-02-22T22:23:24.608Z,52.25
2023-02-22T22:25:52.766Z,51.83
2023-02-22T22:28:25.206Z,53.58
2023-02-22T22:30:51.722Z,54.28
2023-02-22T22:33:18.188Z,53.95
2023-02-22T22:35:44.893Z,54.00
2023-02-22T22:38:11.514Z,54.10
2023-02-22T22:40:38.922Z,52.92
2023-02-22T22:43:05.978Z,52.85
2023-02-22T22:45:32.815Z,53.85
2023-02-22T22:47:59.184Z,52.75
2023-02-22T22:50:26.464Z,52.10
2023-02-22T22:52:55.532Z,50.08
2023-02-22T22:55:24.196Z,57.00
2023-02-22T22:57:56.155Z,56.28
2023-02-22T23:00:37.336Z,55.22
2023-02-22T23:03:05.578Z,53.25
2023-02-22T23:05:37.295Z,54.55
2023-02-22T23:08:04.991Z,55.15
2023-02-22T23:10:33.045Z,54.85
2023-02-22T23:12:59.502Z,56.25
2023-02-22T23:15:26.141Z,55.10
2023-02-22T23:17:56.175Z,55.35
2023-02-22T23:20:26.126Z,54.53
2023-02-22T23:22:54.430Z,55.50
2023-02-22T23:25:21.631Z,53.78
2023-02-22T23:27:49.255Z,55.25
2023-02-22T23:30:18.513Z,54.67
2023-02-22T23:32:49.324Z,54.28
2023-02-22T23:35:18.866Z,53.90
2023-02-22T23:37:50.044Z,52.88
2023-02-22T23:40:16.848Z,53.38
2023-02-22T23:42:49.907Z,54.83
2023-02-22T23:45:27.298Z,54.65
2023-02-22T23:47:56.100Z,53.10
2023-02-22T23:50:27.113Z,53.78
2023-02-22T23:52:59.113Z,53.97
2023-02-22T23:55:31.573Z,54.47
2023-02-22T23:57:59.663Z,53.88
